To NAV CANADA Home Page Login to a new session Search on AWWS site Feedback and Comments Disclaimer Vers la page française équivalente Tips FAQ What's new on the site To the Forecasts and Observations / NOTAM section To "File a Flight Plan" website Publications and other links Update of the User's profile FIC Telephone Numbers My Weather Data Folder Route Weather Data Regional Weather Data Local Weather Data To the Forecasts and Observations / NOTAM section
Request Generated 04/30/2017 at 03:01:29 UTC . Weather information available at that time is displayed.


Save this request

METAR/TAF

WINNIPEG/JAMES ARMSTRONG RICHARDSON INTL/MB    

METAR CYWG 300200Z 17012KT 15SM FEW140 BKN220 12/M06 A3018 RMK AC1CI7
AC TR SLP227=
METAR CYWG 300100Z 17012KT 15SM BKN220 14/M06 A3017 RMK CI6 SLP227=
METAR CYWG 300000Z 17016KT 15SM BKN230 16/M08 A3019 RMK CI7 SLP233=

TAF CYWG 292338Z 3000/3024 19012KT P6SM FEW120 SCT260
RMK NXT FCST BY 300600Z=

PORTAGE LA PRAIRIE/SOUTHPORT/MB    

CYPG - METAR not available

*** REMARK        : Forecast period has ended; this was the last TAF issued
*** REMARQUE : La période de prévision est échue; ceci était le dernier TAF qui a été émis
TAF AMD CYPG 282219Z 2818/2906 FCST CNCLD DUE END OF FLYING PROGRAM
RMK NXT FCST WILL BE ISSUED AT 011215Z=

BRANDON MUNICIPALITY/MB    

METAR CYBR 300300Z 23003KT 15SM SCT250 08/M01 A3011 RMK CI3 SLP214=
METAR CYBR 300200Z 26006KT 15SM FEW080 BKN220 10/M01 A3013 RMK AC1CI5
SLP221=
METAR CYBR 300100Z 27009KT 15SM FEW075 BKN250 13/M00 A3013 RMK AC2CI3
SLP222=

TAF CYBR 292338Z 3000/3012 26012G22KT P6SM SCT070 BKN250
BECMG 3001/3003 21008KT
RMK NXT FCST BY 300600Z=

KENORA/ON    

METAR CYQK 300200Z 12004KT 15SM FEW240 09/M11 A3024 RMK CI2 SLP257=
METAR CYQK 300100Z 00000KT 15SM FEW240 10/M11 A3024 RMK CI2 SLP258=
METAR CYQK 300000Z 22006KT 15SM SCT240 11/M11 A3027 RMK CI3 PRESFR
SLP266=

TAF CYQK 300138Z 3002/3014 VRB03KT P6SM FEW240
BECMG 3002/3004 15005KT
RMK NXT FCST BY 300800Z=

DRYDEN REGIONAL/ON    (show WxCam)

METAR CYHD 300200Z AUTO 08003KT 9SM CLR 07/M11 A3026 RMK SLP268=
METAR CYHD 300100Z AUTO 10002KT 9SM CLR 09/M12 A3025 RMK SLP266=
METAR CYHD 300000Z AUTO 12003KT 9SM CLR 10/M12 A3028 RMK SLP276=

TAF CYHD 300138Z 3002/3014 VRB03KT P6SM SKC
BECMG 3004/3006 15005KT
RMK FCST BASED ON AUTO OBS. NXT FCST BY 300800Z=

THUNDER BAY/ON    (show WxCam)

METAR CYQT 300200Z 05005KT 15SM FEW250 02/M03 A3033 RMK CI2 PRESRR
SLP281=
SPECI CYQT 300129Z 05008KT 20SM SCT250 02/M02 A3030 RMK CI3 SLP274=
METAR CYQT 300100Z 04006KT 20SM SCT250 04/M03 A3029 RMK CI3 SLP268=
METAR CYQT 300000Z 15005KT 20SM SKC 08/M06 A3033 RMK SLP281=

TAF CYQT 300138Z 3002/3014 05008KT P6SM SCT250
RMK NXT FCST BY 300800Z=


Your time UTC time
Weather data provided by Environment Canada and NAV CANADA